Lorimor, Iowa
Current Conditions -  °F | °C
As of 6:15 PM on Saturday 20 Dec 2014 (Local Time) from KCSQ Reporting Station
Haze Haze  
Wind Chill: 28°   Ceiling: 800
Heat Index: 34°   Visibility: 4mi
Dew Point: 34°   Wind: 7mph
Humidity: 100%   Direction: 170°S
Pressure: 30.11"   Gusts: NA
Location:  41.13°N, 94.05°W
Report Text: KCSQ 210015Z AUTO 17006KT 4SM BR OVC008 01/01 A3011 RMK AO2
Loading
Personal Weather Stations






























Interactive Weather Map New forecast layout! Learn more

10-Day Weather Forecast

Advertisements
Track Severe Weather on mobile